Portada
METAR-TAF:

METAR-TAF

Aeroports :

Isfahan, Iran

latitud: 32-28N, longitud: 051-43E, altitud: 1590 m

Observació

L'informe es va fer fa 30 minuts, a les 04:00 UTC
Vent 2 kt del Est/Sud-Est
Temperatura 9°C
Humitat 49%
Pressió 1029 hPa
Visibilitat 10 km o més
sense núvols per sota de 1500 mi sense presència de cumulonimbus.

METAR: OIFM 220400Z 11002KT CAVOK 09/M01 Q1029 A3039

Hora: 08:00 (04:30 UTC)

Pronòstic

L'informe es va fer fa 5 hores i 20 minuts, a les 23:10 UTC
Pronòstic vàlid del 22 a les 00 UTC al 23 a les 06 UTC
Vent 8 kt del Nord-Est
Visibilitat: 7000 m
Temporalment
l' 22 a les 02 UTC al 22 a les 06 UTC
Visibilitat: 4000 m
calitja
Temporalment
l' 23 a les 02 UTC al 23 a les 07 UTC
Visibilitat: 4000 m
calitja

TAF: OIFM 212310Z 2200/2306 04008KT 7000 NSC TEMPO 2202/2206 4000 HZ TEMPO 2302/2307 4000 HZ

Observacions i pronòstics meteorològics de més de 4000 aeroports (METAR i TAF).

Les estacions disponibles són els punts grocs i vermells al mapa.

Posi el ratolí al punt desitjat per veure el nom de l'estació.

Feu clic per veure les observacions i els pronòstics meteorològics.

Per canviar el mapa: feu clic els botons verds amb una creu de color negre per apropar; al botó verd amb un guió per allunyar la imatge; o en les fletxes verdes per a mapes adjacents.


METAR-TAF: